Home > Products > Valid Products > TAF

000
FTUS43 KLBF 031120
TAFVTN
TAF
KVTN 031120Z 0312/0412 VRB02KT 6SM BR SKC
      TEMPO 0312/0314 5SM BR SCT010
     FM031400 31011KT P6SM SCT250
     FM040300 30006KT P6SM SKC=



000
FTUS43 KLBF 031120
TAFLBF
TAF
KLBF 031120Z 0312/0412 VRB03KT 3SM BR SCT003
      TEMPO 0312/0314 1/2SM FG BKN003
     FM031400 33008KT P6SM FEW250
     FM040200 VRB03KT P6SM SKC=



000
FTUS43 KLBF 031019 AAB
TAFLBF
TAF AMD
KLBF 031019Z 0310/0406 VRB03KT 6SM BR SCT250
      TEMPO 0310/0313 3SM BR SCT003
     FM031400 33008KT P6SM SKC=



000
FTUS43 KLBF 030902 AAA
TAFLBF
TAF AMD
KLBF 030902Z 0309/0406 VRB03KT 5SM BR BKN080
      TEMPO 0310/0313 1SM BR BKN003
     FM031400 33008KT P6SM SKC=



000
FTUS43 KLBF 030520
TAFLBF
TAF
KLBF 030520Z 0306/0406 VRB05KT P6SM -SHRA SCT035 OVC050
     FM030700 VRB05KT P6SM VCSH OVC050
     FM030900 VRB03KT 5SM BR SCT010
     FM031500 33008KT P6SM SKC=



000
FTUS43 KLBF 030520
TAFVTN
TAF
KVTN 030520Z 0306/0406 VRB02KT P6SM -SHRA SCT035 OVC050
     FM030800 VRB02KT 5SM BR SCT010
     FM031400 31009KT P6SM SCT250=



000
FTUS43 KLBF 030520
TAFVTN
TAF
KVTN 030520Z 0306/0406 VRB02KT P6SM -SHRA SCT035 OVC050
     FM030800 VRB02KT 5SM BR SCT010
     FM031400 31009KT P6SM SCT250=



000
FTUS43 KLBF 030520
TAFLBF
TAF
KLBF 030520Z 0306/0406 VRB05KT P6SM -SHRA SCT035 OVC050
     FM030700 VRB05KT P6SM VCSH OVC050
     FM030900 VRB03KT 5SM BR SCT010
     FM031500 33008KT P6SM SKC=



000
FTUS43 KLBF 030425 AAA
TAFLBF
TAF AMD
KLBF 030425Z 0304/0324 VRB05KT P6SM -SHRA SCT035 OVC050
     FM030900 VRB03KT 5SM BR SCT010
     FM031500 33008KT P6SM SKC=



000
FTUS43 KLBF 022320
TAFVTN
TAF
KVTN 022320Z 0300/0324 VRB05KT P6SM -SHRA OVC100
     FM030600 VRB02KT 5SM BR SCT010
     FM031400 31009KT P6SM SCT250=



000
FTUS43 KLBF 022320
TAFLBF
TAF
KLBF 022320Z 0300/0324 30005KT P6SM OVC120
     FM030600 VRB05KT P6SM -SHRA OVC060
     FM030900 VRB03KT 5SM BR SCT010
     FM031500 33008KT P6SM SKC=



000
FTUS43 KLBF 021720
TAFVTN
TAF
KVTN 021720Z 0218/0318 29010KT P6SM SCT250
     FM022000 31009KT P6SM BKN070
     FM030100 32009KT P6SM -SHRA OVC050
     FM030600 VRB04KT 2SM BR SCT010
     FM031400 31009KT P6SM SCT250=



000
FTUS43 KLBF 021720
TAFLBF
TAF
KLBF 021720Z 0218/0318 29008KT P6SM SCT250
     FM030600 VRB05KT P6SM VCSH OVC050
     FM030900 VRB03KT 4SM BR SCT010
     FM031500 33008KT P6SM SKC=



000
FTUS43 KLBF 021720
TAFLBF
TAF
KLBF 021720Z 0218/0318 29008KT P6SM SCT250
     FM030600 VRB05KT P6SM VCSH OVC050
     FM030900 VRB03KT 4SM BR SCT010
     FM031500 33008KT P6SM SKC=



000
FTUS43 KLBF 021720
TAFVTN
TAF
KVTN 021720Z 0218/0318 29010KT P6SM SCT250
     FM022000 31009KT P6SM BKN070
     FM030100 32009KT P6SM -SHRA OVC050
     FM030600 VRB04KT 2SM BR SCT010
     FM031400 31009KT P6SM SCT250=



000
FTUS43 KLBF 021120
TAFLBF
TAF
KLBF 021120Z 0212/0312 VRB05KT P6SM SKC
     FM021700 29008KT P6SM SCT250
     FM022000 30008KT P6SM BKN080 PROB30 0300/0306 -TSRA BKN050CB=



000
FTUS43 KLBF 021120
TAFVTN
TAF
KVTN 021120Z 0212/0312 VRB05KT P6SM SKC
     FM021500 28010KT P6SM SCT250
     FM022000 31009KT P6SM BKN070 PROB30 0221/0303 -TSRA BKN050CB=



000
FTUS43 KLBF 020520
TAFLBF
TAF
KLBF 020520Z 0206/0306 VRB06KT P6SM SKC
     FM021700 30008KT P6SM SCT250
     FM022000 30008KT P6SM BKN080 PROB30 0223/0305 -TSRA BKN050CB=



000
FTUS43 KLBF 020520
TAFVTN
TAF
KVTN 020520Z 0206/0306 VRB06KT P6SM SKC
     FM021500 28010KT P6SM SCT250
     FM022000 30009KT P6SM BKN070 PROB30 0221/0303 -TSRA BKN050CB=



000
FTUS43 KLBF 020520
TAFVTN
TAF
KVTN 020520Z 0206/0306 VRB06KT P6SM SKC
     FM021500 28010KT P6SM SCT250
     FM022000 30009KT P6SM BKN070 PROB30 0221/0303 -TSRA BKN050CB=



000
FTUS43 KLBF 020520
TAFLBF
TAF
KLBF 020520Z 0206/0306 VRB06KT P6SM SKC
     FM021700 30008KT P6SM SCT250
     FM022000 30008KT P6SM BKN080 PROB30 0223/0305 -TSRA BKN050CB=



000
FTUS43 KLBF 012320
TAFLBF
TAF
KLBF 012320Z 0200/0224 35011KT P6SM BKN060
     FM020200 VRB06KT P6SM SKC
     FM021500 30008KT P6SM SCT250
     FM022000 30008KT P6SM BKN080=



000
FTUS43 KLBF 012320
TAFVTN
TAF
KVTN 012320Z 0200/0224 35013KT P6SM BKN050
     FM020200 VRB06KT P6SM SKC
     FM021500 28010KT P6SM SCT250
     FM021900 30009KT P6SM BKN050=



000
FTUS43 KLBF 011723
TAFLBF
TAF
KLBF 011723Z 0118/0218 35014G21KT P6SM BKN100
     FM012200 01011KT P6SM BKN100
     FM020200 VRB06KT P6SM SCT080
     FM021500 28010KT P6SM SCT080=



000
FTUS43 KLBF 011723
TAFVTN
TAF
KVTN 011723Z 0118/0218 02017G24KT P6SM SCT040
     FM012200 01012KT P6SM SCT250
     FM020000 VRB05KT P6SM SKC
     FM021500 28010KT P6SM SCT250=



000
FTUS43 KLBF 011556 AAA
TAFVTN
TAF AMD
KVTN 011556Z 0116/0212 01014G20KT P6SM SCT150
     FM012200 01012KT P6SM SCT250
     FM020000 VRB05KT P6SM SKC=



000
FTUS43 KLBF 011350 AAA
TAFLBF
TAF AMD
KLBF 011350Z 0114/0212 35013KT P6SM VCSH SCT025 OVC100
     FM011800 36013KT P6SM SCT035 BKN100
     FM012200 01010KT P6SM SCT050
     FM020200 VRB06KT P6SM SCT080
     FM020800 VRB02KT P6SM SKC=



000
FTUS43 KLBF 011129
TAFVTN
TAF
KVTN 011129Z 0112/0212 35010KT P6SM SCT150
     FM011800 36011G19KT P6SM BKN050
     FM012200 01012KT P6SM SCT250
     FM020000 VRB05KT P6SM SKC=



000
FTUS43 KLBF 011129
TAFLBF
TAF
KLBF 011129Z 0112/0212 35013KT P6SM VCSH OVC015
      TEMPO 0112/0115 -SHRA BKN008
     FM011500 36015KT P6SM BKN025
     FM011800 36013KT P6SM BKN035
     FM012200 01010KT P6SM BKN050
     FM020200 VRB06KT P6SM SCT080
     FM020800 VRB02KT P6SM SKC=



000
FTUS43 KLBF 011056 AAA
TAFVTN
TAF AMD
KVTN 011056Z 0111/0206 35010KT P6SM BKN100
     FM011400 35010KT P6SM SCT150
     FM011800 36011G19KT P6SM BKN050
     FM012200 01012KT P6SM SCT250
     FM020000 VRB06KT P6SM SKC=



000
FTUS43 KLBF 011051 AAA
TAFLBF
TAF AMD
KLBF 011051Z 0111/0206 35013KT P6SM OVC025
      TEMPO 0111/0114 -RA BKN015
     FM011500 36012KT P6SM OVC020
     FM011900 36013KT P6SM BKN035
     FM012200 01010KT P6SM BKN050
     FM020200 VRB06KT P6SM SCT080=



000
FTUS43 KLBF 011051 AAA
TAFLBF
TAF AMD
KLBF 011051Z 0111/0206 35013KT P6SM OVC025
      TEMPO 0111/0114 -RA BKN015
     FM011500 36012KT P6SM OVC020
     FM011900 36013KT P6SM BKN035
     FM012200 01010KT P6SM BKN050
     FM020200 VRB06KT P6SM SCT080=



000
FTUS43 KLBF 010520
TAFLBF
TAF
KLBF 010520Z 0106/0206 35013KT P6SM OVC040
      TEMPO 0106/0110 5SM -RASN OVC020
     FM011500 36012KT P6SM OVC020
     FM011900 36013KT P6SM BKN035
     FM012200 01010KT P6SM BKN050
     FM020200 VRB06KT P6SM SCT080=



000
FTUS43 KLBF 010520
TAFVTN
TAF
KVTN 010520Z 0106/0206 04016G24KT P6SM -RA OVC010
     FM011000 01011KT P6SM OVC015
     FM011400 35010KT P6SM OVC025
     FM011800 36011G19KT P6SM BKN050
     FM012200 01012KT P6SM SCT250
     FM020000 VRB06KT P6SM SKC=



000
FTUS43 KLBF 302324
TAFVTN
TAF
KVTN 302324Z 0100/0124 01016G24KT P6SM -RA OVC010
     FM010800 01011KT 4SM BR VCSH OVC007
     FM011400 35010KT P6SM OVC015
     FM011800 36011G19KT P6SM BKN050
     FM012200 01012KT P6SM SCT050 SCT250=



000
FTUS43 KLBF 302324
TAFLBF
TAF
KLBF 302324Z 0100/0124 36015G22KT 4SM -RASN BKN012 OVC030
     FM010600 35010G16KT 4SM BR VCSH OVC007
     FM011500 36012KT P6SM OVC020
     FM011900 36013G24KT P6SM OVC035
     FM012200 01010G16KT P6SM BKN050=



000
FTUS43 KLBF 302324
TAFLBF
TAF
KLBF 302324Z 0100/0124 36015G22KT 4SM -RASN BKN012 OVC030
     FM010600 35010G16KT 4SM BR VCSH OVC007
     FM011500 36012KT P6SM OVC020
     FM011900 36013G24KT P6SM OVC035
     FM012200 01010G16KT P6SM BKN050=



000
FTUS43 KLBF 302324
TAFVTN
TAF
KVTN 302324Z 0100/0124 01016G24KT P6SM -RA OVC010
     FM010800 01011KT 4SM BR VCSH OVC007
     FM011400 35010KT P6SM OVC015
     FM011800 36011G19KT P6SM BKN050
     FM012200 01012KT P6SM SCT050 SCT250=



000
FTUS43 KLBF 301721
TAFLBF
TAF
KLBF 301721Z 3018/0118 01015G23KT 4SM -RASN BR BKN020 OVC035
     FM302100 01015G22KT 4SM -RASN OVC015
     FM010100 36015G22KT 4SM -RASN BR OVC010
     FM010600 35010G16KT 4SM BR VCSH OVC006
     FM011500 36012KT P6SM OVC012=



000
FTUS43 KLBF 301721
TAFVTN
TAF
KVTN 301721Z 3018/0118 03019G27KT 4SM -RA BR OVC010
     FM302300 02013G18KT 4SM -RA BR OVC007
     FM010600 01011KT 4SM BR VCSH OVC010
     FM011300 35010KT P6SM SCT015=



    US Dept of Commerce
    National Oceanic and Atmospheric Administration
    National Weather Service
    1325 East West Highway
    Silver Spring, MD 20910
    Page Author: NWS Internet Services Team
Disclaimer
Information Quality
Credits
Glossary
Privacy Policy
Freedom of Information Act (FOIA)
About Us
Career Opportunities